sensor_id;sensor_type;location;lat;lon;timestamp;pressure;altitude;pressure_sealevel;temperature;humidity
66664;BME280;59683;51.428;-1.994;2024-02-16T00:01:03;99943.69;;;10.65;100.00
66664;BME280;59683;51.428;-1.994;2024-02-16T00:03:29;99956.22;;;10.63;100.00
66664;BME280;59683;51.428;-1.994;2024-02-16T00:05:56;99955.81;;;10.58;100.00
66664;BME280;59683;51.428;-1.994;2024-02-16T00:08:21;99948.13;;;10.55;100.00
66664;BME280;59683;51.428;-1.994;2024-02-16T00:10:47;99957.75;;;10.56;100.00
66664;BME280;59683;51.428;-1.994;2024-02-16T00:13:12;99959.00;;;10.52;100.00
66664;BME280;59683;51.428;-1.994;2024-02-16T00:15:38;99967.75;;;10.52;100.00
66664;BME280;59683;51.428;-1.994;2024-02-16T00:18:05;99968.47;;;10.54;100.00
66664;BME280;59683;51.428;-1.994;2024-02-16T00:20:30;99975.56;;;10.54;100.00
66664;BME280;59683;51.428;-1.994;2024-02-16T00:22:57;99980.88;;;10.54;100.00
66664;BME280;59683;51.428;-1.994;2024-02-16T00:25:22;99978.34;;;10.52;100.00
66664;BME280;59683;51.428;-1.994;2024-02-16T00:27:48;99980.72;;;10.55;100.00
66664;BME280;59683;51.428;-1.994;2024-02-16T00:30:13;99981.69;;;10.54;100.00
66664;BME280;59683;51.428;-1.994;2024-02-16T00:32:40;99979.06;;;10.54;100.00
66664;BME280;59683;51.428;-1.994;2024-02-16T00:35:06;99981.00;;;10.52;100.00
66664;BME280;59683;51.428;-1.994;2024-02-16T00:37:31;99975.13;;;10.49;100.00
66664;BME280;59683;51.428;-1.994;2024-02-16T00:39:57;99970.81;;;10.48;100.00
66664;BME280;59683;51.428;-1.994;2024-02-16T00:42:22;99967.88;;;10.41;100.00
66664;BME280;59683;51.428;-1.994;2024-02-16T00:44:49;99959.38;;;10.37;100.00
66664;BME280;59683;51.428;-1.994;2024-02-16T00:47:15;99961.34;;;10.35;100.00
66664;BME280;59683;51.428;-1.994;2024-02-16T00:49:42;99966.63;;;10.35;100.00
66664;BME280;59683;51.428;-1.994;2024-02-16T00:52:08;99970.94;;;10.36;100.00
66664;BME280;59683;51.428;-1.994;2024-02-16T00:54:35;99977.63;;;10.31;100.00
66664;BME280;59683;51.428;-1.994;2024-02-16T00:57:01;99972.47;;;10.29;100.00
66664;BME280;59683;51.428;-1.994;2024-02-16T00:59:28;99980.38;;;10.29;100.00
66664;BME280;59683;51.428;-1.994;2024-02-16T01:01:53;99986.50;;;10.30;100.00
66664;BME280;59683;51.428;-1.994;2024-02-16T01:04:19;99980.53;;;10.28;100.00
66664;BME280;59683;51.428;-1.994;2024-02-16T01:06:44;99981.63;;;10.25;100.00
66664;BME280;59683;51.428;-1.994;2024-02-16T01:09:10;99983.56;;;10.23;100.00
66664;BME280;59683;51.428;-1.994;2024-02-16T01:11:40;99983.56;;;10.23;100.00
66664;BME280;59683;51.428;-1.994;2024-02-16T01:14:05;99977.72;;;10.19;100.00
66664;BME280;59683;51.428;-1.994;2024-02-16T01:16:30;99983.94;;;10.18;100.00
66664;BME280;59683;51.428;-1.994;2024-02-16T01:18:56;99995.34;;;10.19;100.00
66664;BME280;59683;51.428;-1.994;2024-02-16T01:21:22;99986.03;;;10.15;100.00
66664;BME280;59683;51.428;-1.994;2024-02-16T01:23:47;99995.75;;;10.14;100.00
66664;BME280;59683;51.428;-1.994;2024-02-16T01:26:13;99982.53;;;10.14;100.00
66664;BME280;59683;51.428;-1.994;2024-02-16T01:28:39;99985.44;;;10.11;100.00
66664;BME280;59683;51.428;-1.994;2024-02-16T01:31:04;99980.47;;;10.08;100.00
66664;BME280;59683;51.428;-1.994;2024-02-16T01:33:29;99986.69;;;10.07;100.00
66664;BME280;59683;51.428;-1.994;2024-02-16T01:35:55;99983.22;;;10.07;100.00
66664;BME280;59683;51.428;-1.994;2024-02-16T01:38:21;99983.47;;;10.04;100.00
66664;BME280;59683;51.428;-1.994;2024-02-16T01:40:48;99989.06;;;10.01;100.00
66664;BME280;59683;51.428;-1.994;2024-02-16T01:43:13;99985.69;;;9.98;100.00
66664;BME280;59683;51.428;-1.994;2024-02-16T01:45:44;100000.59;;;10.00;100.00
66664;BME280;59683;51.428;-1.994;2024-02-16T01:48:09;99999.91;;;9.97;100.00
66664;BME280;59683;51.428;-1.994;2024-02-16T01:50:35;99997.94;;;10.00;100.00
66664;BME280;59683;51.428;-1.994;2024-02-16T01:53:01;99991.38;;;9.94;100.00
66664;BME280;59683;51.428;-1.994;2024-02-16T01:55:26;100008.91;;;9.95;100.00
66664;BME280;59683;51.428;-1.994;2024-02-16T01:57:51;100023.38;;;9.91;100.00
66664;BME280;59683;51.428;-1.994;2024-02-16T02:00:17;100046.91;;;9.94;100.00
66664;BME280;59683;51.428;-1.994;2024-02-16T02:02:46;100061.53;;;9.98;100.00
66664;BME280;59683;51.428;-1.994;2024-02-16T02:05:12;100064.50;;;10.05;100.00
66664;BME280;59683;51.428;-1.994;2024-02-16T02:07:38;100060.88;;;10.06;100.00
66664;BME280;59683;51.428;-1.994;2024-02-16T02:10:04;100067.41;;;10.02;100.00
66664;BME280;59683;51.428;-1.994;2024-02-16T02:12:30;100072.44;;;10.05;100.00
66664;BME280;59683;51.428;-1.994;2024-02-16T02:14:56;100077.97;;;10.02;100.00
66664;BME280;59683;51.428;-1.994;2024-02-16T02:17:22;100103.44;;;10.03;100.00
66664;BME280;59683;51.428;-1.994;2024-02-16T02:19:48;100096.47;;;10.02;100.00
66664;BME280;59683;51.428;-1.994;2024-02-16T02:22:16;100100.59;;;9.94;100.00
66664;BME280;59683;51.428;-1.994;2024-02-16T02:24:42;100109.06;;;9.88;100.00
66664;BME280;59683;51.428;-1.994;2024-02-16T02:27:09;100123.50;;;9.84;100.00
66664;BME280;59683;51.428;-1.994;2024-02-16T02:29:35;100116.78;;;9.80;100.00
66664;BME280;59683;51.428;-1.994;2024-02-16T02:32:00;100130.25;;;9.77;100.00
66664;BME280;59683;51.428;-1.994;2024-02-16T02:34:26;100125.50;;;9.71;100.00
66664;BME280;59683;51.428;-1.994;2024-02-16T02:36:51;100119.63;;;9.67;100.00
66664;BME280;59683;51.428;-1.994;2024-02-16T02:39:17;100107.91;;;9.60;100.00
66664;BME280;59683;51.428;-1.994;2024-02-16T02:41:42;100122.34;;;9.56;100.00
66664;BME280;59683;51.428;-1.994;2024-02-16T02:44:08;100121.75;;;9.53;100.00
66664;BME280;59683;51.428;-1.994;2024-02-16T02:46:34;100115.41;;;9.44;100.00
66664;BME280;59683;51.428;-1.994;2024-02-16T02:48:59;100111.25;;;9.41;100.00
66664;BME280;59683;51.428;-1.994;2024-02-16T02:51:25;100119.41;;;9.38;100.00
66664;BME280;59683;51.428;-1.994;2024-02-16T02:53:52;100126.34;;;9.39;100.00
66664;BME280;59683;51.428;-1.994;2024-02-16T02:56:17;100120.63;;;9.34;100.00
66664;BME280;59683;51.428;-1.994;2024-02-16T02:58:43;100111.16;;;9.32;100.00
66664;BME280;59683;51.428;-1.994;2024-02-16T03:01:08;100104.34;;;9.29;100.00
66664;BME280;59683;51.428;-1.994;2024-02-16T03:03:34;100102.63;;;9.28;100.00
66664;BME280;59683;51.428;-1.994;2024-02-16T03:06:00;100110.81;;;9.25;100.00
66664;BME280;59683;51.428;-1.994;2024-02-16T03:08:28;100114.56;;;9.22;100.00
66664;BME280;59683;51.428;-1.994;2024-02-16T03:10:54;100112.28;;;9.18;100.00
66664;BME280;59683;51.428;-1.994;2024-02-16T03:13:19;100108.94;;;9.16;100.00
66664;BME280;59683;51.428;-1.994;2024-02-16T03:15:45;100107.50;;;9.12;100.00
66664;BME280;59683;51.428;-1.994;2024-02-16T03:18:10;100107.66;;;9.10;100.00
66664;BME280;59683;51.428;-1.994;2024-02-16T03:20:36;100110.63;;;9.06;100.00
66664;BME280;59683;51.428;-1.994;2024-02-16T03:23:02;100108.38;;;9.01;100.00
66664;BME280;59683;51.428;-1.994;2024-02-16T03:25:28;100119.16;;;8.98;100.00
66664;BME280;59683;51.428;-1.994;2024-02-16T03:27:54;100126.84;;;9.01;100.00
66664;BME280;59683;51.428;-1.994;2024-02-16T03:30:20;100129.63;;;8.99;100.00
66664;BME280;59683;51.428;-1.994;2024-02-16T03:32:51;100127.94;;;8.98;100.00
66664;BME280;59683;51.428;-1.994;2024-02-16T03:35:20;100137.53;;;8.99;100.00
66664;BME280;59683;51.428;-1.994;2024-02-16T03:37:45;100132.50;;;8.96;100.00
66664;BME280;59683;51.428;-1.994;2024-02-16T03:40:11;100146.09;;;8.92;100.00
66664;BME280;59683;51.428;-1.994;2024-02-16T03:42:38;100148.44;;;8.95;100.00
66664;BME280;59683;51.428;-1.994;2024-02-16T03:45:04;100164.41;;;8.93;100.00
66664;BME280;59683;51.428;-1.994;2024-02-16T03:47:30;100156.50;;;8.93;100.00
66664;BME280;59683;51.428;-1.994;2024-02-16T03:49:55;100161.31;;;8.88;100.00
66664;BME280;59683;51.428;-1.994;2024-02-16T03:52:20;100167.91;;;8.83;100.00
66664;BME280;59683;51.428;-1.994;2024-02-16T03:54:46;100166.63;;;8.77;100.00
66664;BME280;59683;51.428;-1.994;2024-02-16T03:57:15;100172.13;;;8.74;100.00
66664;BME280;59683;51.428;-1.994;2024-02-16T03:59:42;100168.75;;;8.72;100.00
66664;BME280;59683;51.428;-1.994;2024-02-16T04:02:09;100175.97;;;8.70;100.00
66664;BME280;59683;51.428;-1.994;2024-02-16T04:04:35;100187.59;;;8.67;100.00
66664;BME280;59683;51.428;-1.994;2024-02-16T04:07:00;100184.34;;;8.64;100.00
66664;BME280;59683;51.428;-1.994;2024-02-16T04:09:26;100189.88;;;8.61;100.00
66664;BME280;59683;51.428;-1.994;2024-02-16T04:11:51;100189.63;;;8.64;100.00
66664;BME280;59683;51.428;-1.994;2024-02-16T04:14:16;100176.94;;;8.58;100.00
66664;BME280;59683;51.428;-1.994;2024-02-16T04:16:43;100196.84;;;8.62;100.00
66664;BME280;59683;51.428;-1.994;2024-02-16T04:19:09;100194.66;;;8.56;100.00
66664;BME280;59683;51.428;-1.994;2024-02-16T04:21:34;100206.56;;;8.50;100.00
66664;BME280;59683;51.428;-1.994;2024-02-16T04:24:00;100209.03;;;8.40;100.00
66664;BME280;59683;51.428;-1.994;2024-02-16T04:26:25;100207.81;;;8.33;100.00
66664;BME280;59683;51.428;-1.994;2024-02-16T04:28:50;100205.38;;;8.30;100.00
66664;BME280;59683;51.428;-1.994;2024-02-16T04:31:16;100214.88;;;8.33;100.00
66664;BME280;59683;51.428;-1.994;2024-02-16T04:33:41;100226.00;;;8.25;100.00
66664;BME280;59683;51.428;-1.994;2024-02-16T04:36:07;100224.66;;;8.19;100.00
66664;BME280;59683;51.428;-1.994;2024-02-16T04:38:33;100227.28;;;8.19;100.00
66664;BME280;59683;51.428;-1.994;2024-02-16T04:40:58;100231.63;;;8.20;100.00
66664;BME280;59683;51.428;-1.994;2024-02-16T04:43:23;100229.94;;;8.19;100.00
66664;BME280;59683;51.428;-1.994;2024-02-16T04:45:50;100233.88;;;8.14;100.00
66664;BME280;59683;51.428;-1.994;2024-02-16T04:48:15;100243.94;;;8.09;100.00
66664;BME280;59683;51.428;-1.994;2024-02-16T04:50:41;100234.81;;;8.01;100.00
66664;BME280;59683;51.428;-1.994;2024-02-16T04:53:06;100248.09;;;8.00;100.00
66664;BME280;59683;51.428;-1.994;2024-02-16T04:55:32;100257.44;;;8.04;100.00
66664;BME280;59683;51.428;-1.994;2024-02-16T04:57:59;100265.88;;;8.09;100.00
66664;BME280;59683;51.428;-1.994;2024-02-16T05:00:24;100268.78;;;8.17;100.00
66664;BME280;59683;51.428;-1.994;2024-02-16T05:02:50;100266.25;;;8.27;100.00
66664;BME280;59683;51.428;-1.994;2024-02-16T05:05:16;100272.75;;;8.34;100.00
66664;BME280;59683;51.428;-1.994;2024-02-16T05:07:42;100287.75;;;8.34;100.00
66664;BME280;59683;51.428;-1.994;2024-02-16T05:10:08;100289.31;;;8.36;100.00
66664;BME280;59683;51.428;-1.994;2024-02-16T05:12:34;100285.94;;;8.34;100.00
66664;BME280;59683;51.428;-1.994;2024-02-16T05:15:00;100299.13;;;8.34;100.00
66664;BME280;59683;51.428;-1.994;2024-02-16T05:17:25;100308.75;;;8.35;100.00
66664;BME280;59683;51.428;-1.994;2024-02-16T05:19:51;100313.56;;;8.41;100.00
66664;BME280;59683;51.428;-1.994;2024-02-16T05:22:19;100316.53;;;8.37;100.00
66664;BME280;59683;51.428;-1.994;2024-02-16T05:24:44;100325.72;;;8.31;100.00
66664;BME280;59683;51.428;-1.994;2024-02-16T05:27:10;100322.81;;;8.23;100.00
66664;BME280;59683;51.428;-1.994;2024-02-16T05:29:36;100331.66;;;8.11;100.00
66664;BME280;59683;51.428;-1.994;2024-02-16T05:32:01;100336.22;;;8.09;100.00
66664;BME280;59683;51.428;-1.994;2024-02-16T05:34:27;100331.88;;;8.08;100.00
66664;BME280;59683;51.428;-1.994;2024-02-16T05:36:57;100327.28;;;7.98;100.00
66664;BME280;59683;51.428;-1.994;2024-02-16T05:39:22;100335.63;;;7.92;100.00
66664;BME280;59683;51.428;-1.994;2024-02-16T05:41:57;100340.13;;;7.79;100.00
66664;BME280;59683;51.428;-1.994;2024-02-16T05:44:22;100344.47;;;7.67;100.00
66664;BME280;59683;51.428;-1.994;2024-02-16T05:46:47;100345.25;;;7.57;100.00
66664;BME280;59683;51.428;-1.994;2024-02-16T05:49:14;100348.94;;;7.54;100.00
66664;BME280;59683;51.428;-1.994;2024-02-16T05:51:40;100358.84;;;7.50;100.00
66664;BME280;59683;51.428;-1.994;2024-02-16T05:54:06;100360.34;;;7.42;100.00
66664;BME280;59683;51.428;-1.994;2024-02-16T05:56:33;100360.25;;;7.30;100.00
66664;BME280;59683;51.428;-1.994;2024-02-16T05:59:01;100355.72;;;7.20;100.00
66664;BME280;59683;51.428;-1.994;2024-02-16T06:01:27;100366.47;;;7.17;100.00
66664;BME280;59683;51.428;-1.994;2024-02-16T06:03:54;100364.03;;;7.14;100.00
66664;BME280;59683;51.428;-1.994;2024-02-16T06:06:19;100374.16;;;7.20;100.00
66664;BME280;59683;51.428;-1.994;2024-02-16T06:08:44;100375.31;;;7.16;100.00
66664;BME280;59683;51.428;-1.994;2024-02-16T06:11:10;100384.16;;;7.15;100.00
66664;BME280;59683;51.428;-1.994;2024-02-16T06:13:35;100385.94;;;7.14;100.00
66664;BME280;59683;51.428;-1.994;2024-02-16T06:16:00;100388.56;;;7.14;100.00
66664;BME280;59683;51.428;-1.994;2024-02-16T06:18:27;100387.72;;;7.14;100.00
66664;BME280;59683;51.428;-1.994;2024-02-16T06:20:55;100394.28;;;7.08;100.00
66664;BME280;59683;51.428;-1.994;2024-02-16T06:23:20;100400.56;;;7.05;100.00
66664;BME280;59683;51.428;-1.994;2024-02-16T06:25:45;100397.94;;;7.05;100.00
66664;BME280;59683;51.428;-1.994;2024-02-16T06:28:11;100402.25;;;7.06;100.00
66664;BME280;59683;51.428;-1.994;2024-02-16T06:30:36;100408.03;;;6.99;100.00
66664;BME280;59683;51.428;-1.994;2024-02-16T06:33:02;100412.91;;;6.92;100.00
66664;BME280;59683;51.428;-1.994;2024-02-16T06:35:29;100412.78;;;6.94;100.00
66664;BME280;59683;51.428;-1.994;2024-02-16T06:37:54;100417.09;;;6.95;100.00
66664;BME280;59683;51.428;-1.994;2024-02-16T06:40:20;100420.56;;;6.95;100.00
66664;BME280;59683;51.428;-1.994;2024-02-16T06:42:46;100430.34;;;6.93;100.00
66664;BME280;59683;51.428;-1.994;2024-02-16T06:45:11;100422.47;;;6.93;100.00
66664;BME280;59683;51.428;-1.994;2024-02-16T06:47:37;100439.94;;;6.94;100.00
66664;BME280;59683;51.428;-1.994;2024-02-16T06:50:02;100439.72;;;6.97;100.00
66664;BME280;59683;51.428;-1.994;2024-02-16T06:52:28;100450.44;;;6.94;100.00
66664;BME280;59683;51.428;-1.994;2024-02-16T06:54:53;100452.66;;;6.88;100.00
66664;BME280;59683;51.428;-1.994;2024-02-16T06:57:19;100456.44;;;6.84;100.00
66664;BME280;59683;51.428;-1.994;2024-02-16T06:59:45;100465.38;;;6.81;100.00
66664;BME280;59683;51.428;-1.994;2024-02-16T07:02:11;100473.34;;;6.79;100.00
66664;BME280;59683;51.428;-1.994;2024-02-16T07:04:36;100479.25;;;6.83;100.00
66664;BME280;59683;51.428;-1.994;2024-02-16T07:07:01;100491.25;;;6.74;100.00
66664;BME280;59683;51.428;-1.994;2024-02-16T07:09:29;100494.91;;;6.72;100.00
66664;BME280;59683;51.428;-1.994;2024-02-16T07:11:54;100499.97;;;6.75;100.00
66664;BME280;59683;51.428;-1.994;2024-02-16T07:14:19;100511.13;;;6.78;100.00
66664;BME280;59683;51.428;-1.994;2024-02-16T07:16:45;100509.66;;;6.74;100.00
66664;BME280;59683;51.428;-1.994;2024-02-16T07:19:10;100508.06;;;6.72;100.00
66664;BME280;59683;51.428;-1.994;2024-02-16T07:21:35;100507.75;;;6.76;100.00
66664;BME280;59683;51.428;-1.994;2024-02-16T07:24:01;100526.22;;;6.89;100.00
66664;BME280;59683;51.428;-1.994;2024-02-16T07:26:27;100525.41;;;7.01;100.00
66664;BME280;59683;51.428;-1.994;2024-02-16T07:28:54;100529.97;;;7.12;100.00
66664;BME280;59683;51.428;-1.994;2024-02-16T07:31:19;100533.88;;;7.19;100.00
66664;BME280;59683;51.428;-1.994;2024-02-16T07:33:45;100547.38;;;7.27;100.00
66664;BME280;59683;51.428;-1.994;2024-02-16T07:36:10;100537.03;;;7.24;100.00
66664;BME280;59683;51.428;-1.994;2024-02-16T07:38:36;100542.41;;;7.23;100.00
66664;BME280;59683;51.428;-1.994;2024-02-16T07:41:01;100550.31;;;7.23;100.00
66664;BME280;59683;51.428;-1.994;2024-02-16T07:43:27;100556.50;;;7.22;100.00
66664;BME280;59683;51.428;-1.994;2024-02-16T07:45:53;100559.13;;;7.22;100.00
66664;BME280;59683;51.428;-1.994;2024-02-16T07:48:21;100562.91;;;7.18;100.00
66664;BME280;59683;51.428;-1.994;2024-02-16T07:50:47;100570.81;;;7.18;100.00
66664;BME280;59683;51.428;-1.994;2024-02-16T07:53:14;100575.50;;;7.27;100.00
66664;BME280;59683;51.428;-1.994;2024-02-16T07:55:39;100590.25;;;7.42;100.00
66664;BME280;59683;51.428;-1.994;2024-02-16T07:58:04;100594.38;;;7.59;100.00
66664;BME280;59683;51.428;-1.994;2024-02-16T08:00:29;100599.78;;;7.70;100.00
66664;BME280;59683;51.428;-1.994;2024-02-16T08:02:55;100605.28;;;7.80;100.00
66664;BME280;59683;51.428;-1.994;2024-02-16T08:05:20;100613.50;;;7.88;100.00
66664;BME280;59683;51.428;-1.994;2024-02-16T08:07:47;100625.81;;;8.00;100.00
66664;BME280;59683;51.428;-1.994;2024-02-16T08:10:13;100628.81;;;8.09;100.00
66664;BME280;59683;51.428;-1.994;2024-02-16T08:12:39;100630.16;;;8.14;100.00
66664;BME280;59683;51.428;-1.994;2024-02-16T08:15:05;100640.06;;;8.23;100.00
66664;BME280;59683;51.428;-1.994;2024-02-16T08:17:36;100636.66;;;8.34;100.00
66664;BME280;59683;51.428;-1.994;2024-02-16T08:20:01;100643.03;;;8.44;100.00
66664;BME280;59683;51.428;-1.994;2024-02-16T08:22:27;100652.19;;;8.51;100.00
66664;BME280;59683;51.428;-1.994;2024-02-16T08:24:52;100649.44;;;8.53;100.00
66664;BME280;59683;51.428;-1.994;2024-02-16T08:27:18;100650.81;;;8.59;100.00
66664;BME280;59683;51.428;-1.994;2024-02-16T08:29:43;100655.44;;;8.68;100.00
66664;BME280;59683;51.428;-1.994;2024-02-16T08:32:09;100660.69;;;8.81;100.00
66664;BME280;59683;51.428;-1.994;2024-02-16T08:34:35;100663.56;;;8.78;100.00
66664;BME280;59683;51.428;-1.994;2024-02-16T08:37:03;100665.84;;;8.82;100.00
66664;BME280;59683;51.428;-1.994;2024-02-16T08:39:29;100672.81;;;8.83;100.00
66664;BME280;59683;51.428;-1.994;2024-02-16T08:41:55;100679.56;;;8.87;100.00
66664;BME280;59683;51.428;-1.994;2024-02-16T08:44:20;100684.41;;;8.93;100.00
66664;BME280;59683;51.428;-1.994;2024-02-16T08:46:46;100681.09;;;9.03;100.00
66664;BME280;59683;51.428;-1.994;2024-02-16T08:49:16;100686.56;;;9.12;100.00
66664;BME280;59683;51.428;-1.994;2024-02-16T08:51:42;100693.22;;;9.18;100.00
66664;BME280;59683;51.428;-1.994;2024-02-16T08:54:07;100704.72;;;9.17;100.00
66664;BME280;59683;51.428;-1.994;2024-02-16T08:56:33;100710.22;;;9.14;100.00
66664;BME280;59683;51.428;-1.994;2024-02-16T08:59:01;100709.16;;;9.16;100.00
66664;BME280;59683;51.428;-1.994;2024-02-16T09:01:39;100705.81;;;9.14;100.00
66664;BME280;59683;51.428;-1.994;2024-02-16T09:04:05;100707.47;;;9.15;100.00
66664;BME280;59683;51.428;-1.994;2024-02-16T09:06:30;100707.81;;;9.11;100.00
66664;BME280;59683;51.428;-1.994;2024-02-16T09:08:56;100713.72;;;9.14;100.00
66664;BME280;59683;51.428;-1.994;2024-02-16T09:11:22;100715.91;;;9.20;100.00
66664;BME280;59683;51.428;-1.994;2024-02-16T09:13:48;100728.59;;;9.52;100.00
66664;BME280;59683;51.428;-1.994;2024-02-16T09:16:14;100730.72;;;10.06;100.00
66664;BME280;59683;51.428;-1.994;2024-02-16T09:18:39;100743.94;;;10.64;100.00
66664;BME280;59683;51.428;-1.994;2024-02-16T09:21:05;100746.31;;;11.34;100.00
66664;BME280;59683;51.428;-1.994;2024-02-16T09:23:31;100750.03;;;11.86;100.00
66664;BME280;59683;51.428;-1.994;2024-02-16T09:25:58;100754.25;;;12.10;100.00
66664;BME280;59683;51.428;-1.994;2024-02-16T09:28:24;100757.25;;;11.84;100.00
66664;BME280;59683;51.428;-1.994;2024-02-16T09:30:50;100744.19;;;11.60;100.00
66664;BME280;59683;51.428;-1.994;2024-02-16T09:33:15;100752.19;;;11.38;100.00
66664;BME280;59683;51.428;-1.994;2024-02-16T09:35:41;100741.00;;;11.34;100.00
66664;BME280;59683;51.428;-1.994;2024-02-16T09:38:06;100741.97;;;11.33;100.00
66664;BME280;59683;51.428;-1.994;2024-02-16T09:40:32;100741.53;;;11.17;100.00
66664;BME280;59683;51.428;-1.994;2024-02-16T09:42:58;100736.50;;;11.03;100.00
66664;BME280;59683;51.428;-1.994;2024-02-16T09:45:23;100738.66;;;10.98;100.00
66664;BME280;59683;51.428;-1.994;2024-02-16T09:47:51;100738.41;;;10.89;100.00
66664;BME280;59683;51.428;-1.994;2024-02-16T09:50:17;100731.06;;;10.82;100.00
66664;BME280;59683;51.428;-1.994;2024-02-16T09:52:47;100730.72;;;10.75;100.00
66664;BME280;59683;51.428;-1.994;2024-02-16T09:55:13;100742.16;;;10.76;100.00
66664;BME280;59683;51.428;-1.994;2024-02-16T09:57:39;100739.25;;;10.90;100.00
66664;BME280;59683;51.428;-1.994;2024-02-16T10:00:04;100741.44;;;10.96;100.00
66664;BME280;59683;51.428;-1.994;2024-02-16T10:02:43;100750.44;;;11.16;100.00
66664;BME280;59683;51.428;-1.994;2024-02-16T10:05:17;100743.06;;;11.31;100.00
66664;BME280;59683;51.428;-1.994;2024-02-16T10:07:43;100735.69;;;11.46;100.00
66664;BME280;59683;51.428;-1.994;2024-02-16T10:10:25;100736.09;;;11.62;100.00
66664;BME280;59683;51.428;-1.994;2024-02-16T10:13:10;100736.97;;;12.36;100.00
66664;BME280;59683;51.428;-1.994;2024-02-16T10:15:36;100740.66;;;13.06;100.00
66664;BME280;59683;51.428;-1.994;2024-02-16T10:20:29;100723.59;;;13.78;100.00
66664;BME280;59683;51.428;-1.994;2024-02-16T10:23:08;100730.88;;;13.86;100.00
66664;BME280;59683;51.428;-1.994;2024-02-16T10:25:39;100724.28;;;14.00;100.00
66664;BME280;59683;51.428;-1.994;2024-02-16T10:28:10;100741.28;;;14.65;100.00
66664;BME280;59683;51.428;-1.994;2024-02-16T10:30:38;100736.97;;;15.19;100.00
66664;BME280;59683;51.428;-1.994;2024-02-16T10:33:06;100736.91;;;15.29;100.00
66664;BME280;59683;51.428;-1.994;2024-02-16T10:35:36;100731.56;;;14.74;100.00
66664;BME280;59683;51.428;-1.994;2024-02-16T10:38:03;100744.13;;;14.34;100.00
66664;BME280;59683;51.428;-1.994;2024-02-16T10:40:41;100756.50;;;13.87;100.00
66664;BME280;59683;51.428;-1.994;2024-02-16T10:43:08;100759.84;;;13.79;100.00
66664;BME280;59683;51.428;-1.994;2024-02-16T10:45:36;100753.66;;;13.40;100.00
66664;BME280;59683;51.428;-1.994;2024-02-16T10:48:03;100762.28;;;12.92;100.00
66664;BME280;59683;51.428;-1.994;2024-02-16T10:50:31;100763.75;;;12.75;100.00
66664;BME280;59683;51.428;-1.994;2024-02-16T10:52:58;100768.66;;;12.80;100.00
66664;BME280;59683;51.428;-1.994;2024-02-16T10:55:25;100780.09;;;12.50;100.00
66664;BME280;59683;51.428;-1.994;2024-02-16T10:57:51;100780.53;;;12.13;100.00
66664;BME280;59683;51.428;-1.994;2024-02-16T11:00:19;100791.25;;;11.79;100.00
66664;BME280;59683;51.428;-1.994;2024-02-16T11:02:55;100794.19;;;11.65;100.00
66664;BME280;59683;51.428;-1.994;2024-02-16T11:05:39;100805.44;;;11.46;100.00
66664;BME280;59683;51.428;-1.994;2024-02-16T11:08:12;100810.16;;;11.20;100.00
66664;BME280;59683;51.428;-1.994;2024-02-16T11:10:38;100816.66;;;11.05;100.00
66664;BME280;59683;51.428;-1.994;2024-02-16T11:13:04;100818.09;;;10.86;100.00
66664;BME280;59683;51.428;-1.994;2024-02-16T11:15:33;100832.66;;;10.81;100.00
66664;BME280;59683;51.428;-1.994;2024-02-16T11:18:03;100827.16;;;10.95;100.00
66664;BME280;59683;51.428;-1.994;2024-02-16T11:20:29;100834.72;;;11.22;100.00
66664;BME280;59683;51.428;-1.994;2024-02-16T11:23:13;100828.22;;;11.49;100.00
66664;BME280;59683;51.428;-1.994;2024-02-16T11:25:49;100819.38;;;11.71;100.00
66664;BME280;59683;51.428;-1.994;2024-02-16T11:28:15;100831.03;;;11.79;100.00
66664;BME280;59683;51.428;-1.994;2024-02-16T11:30:41;100828.63;;;11.87;100.00
66664;BME280;59683;51.428;-1.994;2024-02-16T11:33:10;100841.03;;;11.76;100.00
66664;BME280;59683;51.428;-1.994;2024-02-16T11:35:36;100828.38;;;11.79;100.00
66664;BME280;59683;51.428;-1.994;2024-02-16T11:38:01;100837.81;;;11.83;100.00
66664;BME280;59683;51.428;-1.994;2024-02-16T11:40:26;100838.50;;;11.97;100.00
66664;BME280;59683;51.428;-1.994;2024-02-16T11:42:58;100841.72;;;12.11;100.00
66664;BME280;59683;51.428;-1.994;2024-02-16T11:45:23;100846.16;;;12.11;100.00
66664;BME280;59683;51.428;-1.994;2024-02-16T11:47:48;100843.50;;;12.11;100.00
66664;BME280;59683;51.428;-1.994;2024-02-16T11:50:14;100854.97;;;12.11;100.00
66664;BME280;59683;51.428;-1.994;2024-02-16T11:52:41;100841.72;;;12.32;100.00
66664;BME280;59683;51.428;-1.994;2024-02-16T11:55:10;100846.88;;;12.45;100.00
66664;BME280;59683;51.428;-1.994;2024-02-16T11:57:37;100836.50;;;12.63;100.00
66664;BME280;59683;51.428;-1.994;2024-02-16T12:00:03;100837.78;;;12.69;100.00
66664;BME280;59683;51.428;-1.994;2024-02-16T12:02:34;100843.81;;;12.92;100.00
66664;BME280;59683;51.428;-1.994;2024-02-16T12:05:00;100846.88;;;13.48;100.00
66664;BME280;59683;51.428;-1.994;2024-02-16T12:07:27;100839.00;;;14.55;100.00
66664;BME280;59683;51.428;-1.994;2024-02-16T12:09:59;100841.25;;;15.16;100.00
66664;BME280;59683;51.428;-1.994;2024-02-16T12:12:25;100843.97;;;15.34;100.00
66664;BME280;59683;51.428;-1.994;2024-02-16T12:14:50;100846.44;;;14.71;100.00
66664;BME280;59683;51.428;-1.994;2024-02-16T12:17:17;100840.69;;;14.17;100.00
66664;BME280;59683;51.428;-1.994;2024-02-16T12:19:46;100852.97;;;13.29;100.00
66664;BME280;59683;51.428;-1.994;2024-02-16T12:22:22;100849.66;;;12.64;100.00
66664;BME280;59683;51.428;-1.994;2024-02-16T12:24:48;100853.84;;;12.14;100.00
66664;BME280;59683;51.428;-1.994;2024-02-16T12:27:15;100851.16;;;11.82;100.00
66664;BME280;59683;51.428;-1.994;2024-02-16T12:29:40;100856.13;;;11.64;100.00
66664;BME280;59683;51.428;-1.994;2024-02-16T12:32:06;100856.03;;;11.43;100.00
66664;BME280;59683;51.428;-1.994;2024-02-16T12:34:32;100866.16;;;11.38;100.00
66664;BME280;59683;51.428;-1.994;2024-02-16T12:36:57;100864.25;;;11.40;100.00